createdAt,value
2018-06-19T00:00:59.757Z,0.00
2018-06-19T00:02:00.623Z,0.00
2018-06-19T00:02:59.756Z,0.00
2018-06-19T00:03:59.766Z,0.00
2018-06-19T00:04:59.757Z,0.00
2018-06-19T00:05:59.766Z,0.00
2018-06-19T00:06:59.773Z,0.00
2018-06-19T00:07:59.751Z,0.00
2018-06-19T00:08:59.788Z,0.00
2018-06-19T00:09:59.783Z,0.00
2018-06-19T00:10:59.768Z,0.00
2018-06-19T00:11:59.859Z,0.00
2018-06-19T00:12:59.786Z,0.00
2018-06-19T00:13:59.722Z,0.00
2018-06-19T00:14:59.777Z,0.00
2018-06-19T00:15:59.807Z,0.00
2018-06-19T00:16:59.792Z,0.00
2018-06-19T00:17:59.783Z,0.00
2018-06-19T00:18:59.766Z,0.00
2018-06-19T00:19:59.818Z,0.00
2018-06-19T00:20:59.819Z,0.00
2018-06-19T00:21:59.796Z,0.00
2018-06-19T00:22:59.795Z,0.00
2018-06-19T00:23:59.781Z,0.00
2018-06-19T00:24:59.784Z,0.00
2018-06-19T00:25:59.773Z,0.00
2018-06-19T00:26:59.770Z,0.00
2018-06-19T00:27:59.779Z,0.00
2018-06-19T00:28:59.842Z,0.00
2018-06-19T00:29:59.820Z,0.00
2018-06-19T00:30:59.771Z,0.00
2018-06-19T00:31:59.819Z,0.00
2018-06-19T00:32:59.786Z,0.00
2018-06-19T00:33:59.802Z,0.00
2018-06-19T00:34:59.818Z,0.00
2018-06-19T00:35:59.806Z,0.00
2018-06-19T00:36:59.816Z,0.00
2018-06-19T00:37:59.839Z,0.00
2018-06-19T00:38:59.863Z,0.00
2018-06-19T00:39:59.816Z,0.00
2018-06-19T00:40:59.824Z,0.00
2018-06-19T00:41:59.819Z,0.00
2018-06-19T00:43:00.636Z,0.00
2018-06-19T00:43:59.800Z,0.00
2018-06-19T00:44:59.816Z,0.00
2018-06-19T00:45:59.847Z,0.00
2018-06-19T00:46:59.821Z,0.00
2018-06-19T00:47:59.821Z,0.00
2018-06-19T00:48:59.877Z,0.00
2018-06-19T00:49:59.812Z,0.00
2018-06-19T00:50:59.823Z,0.00
2018-06-19T00:51:59.823Z,0.00
2018-06-19T00:52:59.847Z,0.00
2018-06-19T00:53:59.844Z,0.00
2018-06-19T00:54:59.824Z,0.00
2018-06-19T00:55:59.832Z,0.00
2018-06-19T00:56:59.834Z,0.00
2018-06-19T00:57:59.854Z,0.00
2018-06-19T00:58:59.848Z,0.00
2018-06-19T00:59:59.852Z,0.00
2018-06-19T01:00:59.870Z,0.00
2018-06-19T01:01:59.919Z,0.00
2018-06-19T01:02:59.859Z,0.00
2018-06-19T01:03:59.846Z,0.00
2018-06-19T01:04:59.861Z,0.00
2018-06-19T01:05:59.886Z,0.00
2018-06-19T01:06:59.872Z,0.00
2018-06-19T01:07:59.848Z,0.00
2018-06-19T01:08:59.870Z,0.00
2018-06-19T01:09:59.851Z,0.00
2018-06-19T01:10:59.874Z,0.00
2018-06-19T01:11:59.869Z,0.00
2018-06-19T01:12:59.876Z,0.00
2018-06-19T01:13:59.878Z,0.00
2018-06-19T01:14:59.857Z,0.00
2018-06-19T01:15:59.884Z,0.00
2018-06-19T01:16:59.925Z,0.00
2018-06-19T01:17:59.968Z,0.00
2018-06-19T01:19:00.700Z,0.00
2018-06-19T01:20:00.034Z,0.00
2018-06-19T01:21:00.054Z,0.00
2018-06-19T01:21:59.961Z,0.00
2018-06-19T01:22:59.898Z,0.00
2018-06-19T01:23:59.891Z,0.00
2018-06-19T01:24:59.882Z,0.00
2018-06-19T01:25:59.929Z,0.00
2018-06-19T01:26:59.927Z,0.00
2018-06-19T01:27:59.927Z,0.00
2018-06-19T01:28:59.939Z,0.00
2018-06-19T01:29:59.976Z,0.00
2018-06-19T01:30:59.970Z,0.00
2018-06-19T01:31:59.919Z,0.00
2018-06-19T01:33:00.016Z,0.00
2018-06-19T01:33:59.939Z,0.00
2018-06-19T01:35:00.021Z,0.00
2018-06-19T01:35:59.980Z,0.00
2018-06-19T01:36:59.939Z,0.00
2018-06-19T01:37:59.983Z,0.00
2018-06-19T01:38:59.974Z,0.00
2018-06-19T01:40:00.033Z,0.00
2018-06-19T01:40:59.992Z,0.00
2018-06-19T01:41:59.929Z,0.00
2018-06-19T01:42:59.937Z,0.00
2018-06-19T01:43:59.968Z,0.00
2018-06-19T01:44:59.973Z,0.00
2018-06-19T01:45:59.969Z,0.00
2018-06-19T01:46:59.984Z,0.00
2018-06-19T01:47:59.987Z,0.00
2018-06-19T01:48:59.942Z,0.00
2018-06-19T01:50:00.009Z,0.00
2018-06-19T01:51:00.000Z,0.00
2018-06-19T01:52:00.055Z,0.00
2018-06-19T01:53:00.074Z,0.00
2018-06-19T01:54:00.054Z,0.00
2018-06-19T01:55:00.084Z,0.00
2018-06-19T01:56:00.105Z,0.00
2018-06-19T01:57:00.041Z,0.00
2018-06-19T01:58:00.044Z,0.00
2018-06-19T01:59:00.073Z,0.00
2018-06-19T02:00:00.110Z,0.00
2018-06-19T02:01:00.010Z,0.00
2018-06-19T02:02:00.019Z,0.00
2018-06-19T02:02:59.980Z,0.00
2018-06-19T02:04:00.009Z,0.00
2018-06-19T02:04:59.998Z,0.00
2018-06-19T02:05:59.996Z,0.00
2018-06-19T02:06:59.981Z,0.00
2018-06-19T02:07:59.990Z,0.00
2018-06-19T02:08:59.984Z,0.00
2018-06-19T02:10:00.016Z,0.00
2018-06-19T02:11:00.028Z,0.00
2018-06-19T02:12:00.042Z,0.00
2018-06-19T02:12:59.995Z,0.00
2018-06-19T02:13:59.992Z,0.00
2018-06-19T02:15:00.024Z,0.00
2018-06-19T02:16:00.000Z,0.00
2018-06-19T02:17:00.025Z,0.00
2018-06-19T02:18:00.144Z,0.00
2018-06-19T02:19:00.029Z,0.00
2018-06-19T02:20:00.672Z,0.00
2018-06-19T02:21:00.050Z,0.00
2018-06-19T02:22:00.035Z,0.00
2018-06-19T02:23:00.034Z,0.00
2018-06-19T02:24:00.674Z,0.00
2018-06-19T02:25:00.048Z,0.00
2018-06-19T02:26:00.050Z,0.00
2018-06-19T02:27:00.047Z,0.00
2018-06-19T02:28:00.056Z,0.00
2018-06-19T02:29:00.060Z,0.00
2018-06-19T02:30:00.064Z,0.00
2018-06-19T02:31:00.038Z,0.00
2018-06-19T02:32:00.042Z,0.00
2018-06-19T02:33:00.048Z,0.00
2018-06-19T02:34:00.036Z,0.00
2018-06-19T02:35:00.055Z,0.00
2018-06-19T02:36:00.079Z,4.00
2018-06-19T02:37:00.060Z,4.00
2018-06-19T02:38:00.072Z,4.00
2018-06-19T02:39:00.121Z,4.00
2018-06-19T02:40:00.072Z,4.00
2018-06-19T02:41:00.057Z,0.00
2018-06-19T02:42:00.071Z,0.00
2018-06-19T02:43:00.091Z,0.00
2018-06-19T02:44:00.079Z,0.00
2018-06-19T02:45:00.101Z,0.00
2018-06-19T02:46:00.097Z,4.00
2018-06-19T02:47:00.089Z,4.00
2018-06-19T02:48:00.092Z,4.00
2018-06-19T02:49:00.079Z,4.00
2018-06-19T02:50:00.088Z,4.00
2018-06-19T02:51:00.688Z,8.00
2018-06-19T02:52:00.251Z,4.00
2018-06-19T02:53:00.103Z,4.00
2018-06-19T02:54:00.139Z,8.00
2018-06-19T02:55:00.121Z,8.00
2018-06-19T02:56:00.095Z,4.00
2018-06-19T02:57:00.101Z,8.00
2018-06-19T02:58:00.134Z,8.00
2018-06-19T02:59:00.106Z,12.00
2018-06-19T03:00:00.143Z,8.00
2018-06-19T03:01:00.139Z,12.00
2018-06-19T03:02:00.133Z,12.00
2018-06-19T03:03:00.135Z,16.00
2018-06-19T03:04:00.138Z,12.00
2018-06-19T03:05:00.128Z,16.00
2018-06-19T03:06:00.137Z,16.00
2018-06-19T03:07:00.133Z,20.00
2018-06-19T03:08:00.140Z,20.00
2018-06-19T03:09:00.251Z,24.00
2018-06-19T03:10:00.166Z,24.00
2018-06-19T03:11:00.142Z,28.00
2018-06-19T03:12:00.134Z,32.00
2018-06-19T03:13:00.135Z,32.00
2018-06-19T03:14:00.134Z,32.00
2018-06-19T03:15:00.190Z,36.00
2018-06-19T03:16:00.130Z,32.00
2018-06-19T03:17:00.131Z,36.00
2018-06-19T03:18:00.207Z,36.00
2018-06-19T03:19:00.171Z,40.00
2018-06-19T03:20:00.176Z,40.00
2018-06-19T03:21:00.187Z,40.00
2018-06-19T03:22:00.274Z,40.00
2018-06-19T03:23:00.163Z,40.00
2018-06-19T03:24:00.176Z,40.00
2018-06-19T03:25:00.177Z,40.00
2018-06-19T03:26:00.189Z,40.00
2018-06-19T03:27:00.172Z,36.00
2018-06-19T03:28:00.193Z,36.00
2018-06-19T03:29:00.202Z,32.00
2018-06-19T03:30:00.192Z,32.00
2018-06-19T03:31:00.203Z,48.00
2018-06-19T03:32:00.192Z,68.00
2018-06-19T03:33:00.192Z,72.00
2018-06-19T03:34:00.231Z,80.00
2018-06-19T03:35:00.172Z,80.00
2018-06-19T03:36:00.199Z,88.00
2018-06-19T03:37:00.187Z,84.00
2018-06-19T03:38:00.192Z,84.00
2018-06-19T03:39:00.200Z,88.00
2018-06-19T03:40:00.210Z,100.00
2018-06-19T03:41:00.206Z,108.00
2018-06-19T03:42:00.206Z,116.00
2018-06-19T03:43:00.229Z,132.00
2018-06-19T03:44:00.703Z,140.00
2018-06-19T03:45:00.221Z,140.00
2018-06-19T03:46:00.243Z,152.00
2018-06-19T03:47:00.232Z,172.00
2018-06-19T03:48:00.236Z,188.00
2018-06-19T03:49:00.248Z,200.00
2018-06-19T03:50:00.245Z,200.00
2018-06-19T03:51:00.239Z,180.00
2018-06-19T03:52:00.228Z,168.00
2018-06-19T03:53:00.240Z,160.00
2018-06-19T03:54:00.281Z,164.00
2018-06-19T03:55:00.291Z,172.00
2018-06-19T03:56:00.255Z,196.00
2018-06-19T03:57:00.229Z,188.00
2018-06-19T03:58:01.833Z,184.00
2018-06-19T03:59:00.259Z,180.00
2018-06-19T04:00:00.245Z,176.00
2018-06-19T04:01:00.254Z,192.00
2018-06-19T04:02:00.306Z,252.00
2018-06-19T04:03:00.274Z,304.00
2018-06-19T04:04:00.267Z,320.00
2018-06-19T04:05:00.275Z,300.00
2018-06-19T04:06:00.325Z,280.00
2018-06-19T04:07:00.309Z,276.00
2018-06-19T04:08:00.297Z,268.00
2018-06-19T04:09:00.312Z,304.00
2018-06-19T04:10:00.291Z,368.00
2018-06-19T04:11:00.272Z,416.00
2018-06-19T04:12:00.288Z,396.00
2018-06-19T04:13:00.259Z,348.00
2018-06-19T04:14:00.278Z,300.00
2018-06-19T04:15:00.267Z,264.00
2018-06-19T04:16:00.310Z,324.00
2018-06-19T04:17:00.296Z,360.00
2018-06-19T04:18:00.344Z,368.00
2018-06-19T04:19:00.291Z,372.00
2018-06-19T04:20:00.308Z,364.00
2018-06-19T04:21:00.308Z,356.00
2018-06-19T04:22:01.217Z,368.00
2018-06-19T04:23:00.324Z,440.00
2018-06-19T04:24:00.290Z,428.00
2018-06-19T04:25:00.329Z,368.00
2018-06-19T04:26:00.343Z,320.00
2018-06-19T04:27:00.304Z,292.00
2018-06-19T04:28:00.309Z,344.00
2018-06-19T04:29:00.324Z,428.00
2018-06-19T04:30:00.337Z,460.00
2018-06-19T04:31:00.328Z,520.00
2018-06-19T04:32:00.333Z,576.00
2018-06-19T04:33:00.354Z,672.00
2018-06-19T04:34:00.332Z,900.00
2018-06-19T04:35:00.313Z,1044.00
2018-06-19T04:36:00.338Z,1176.00
2018-06-19T04:37:00.361Z,1216.00
2018-06-19T04:38:00.353Z,1132.00
2018-06-19T04:39:00.393Z,1036.00
2018-06-19T04:40:00.370Z,832.00
2018-06-19T04:41:00.322Z,648.00
2018-06-19T04:42:00.391Z,536.00
2018-06-19T04:43:00.352Z,516.00
2018-06-19T04:44:00.444Z,512.00
2018-06-19T04:45:00.363Z,532.00
2018-06-19T04:46:00.408Z,580.00
2018-06-19T04:47:00.374Z,636.00
2018-06-19T04:48:00.378Z,732.00
2018-06-19T04:49:00.350Z,844.00
2018-06-19T04:50:02.333Z,984.00
2018-06-19T04:51:00.366Z,1132.00
2018-06-19T04:52:00.408Z,1336.00
2018-06-19T04:53:01.230Z,1372.00
2018-06-19T04:54:00.377Z,1328.00
2018-06-19T04:55:00.369Z,1268.00
2018-06-19T04:56:00.376Z,1300.00
2018-06-19T04:57:00.420Z,1376.00
2018-06-19T04:58:00.431Z,1316.00
2018-06-19T04:59:00.430Z,1276.00
2018-06-19T05:00:00.451Z,1216.00
2018-06-19T05:01:00.389Z,1232.00
2018-06-19T05:02:00.417Z,1248.00
2018-06-19T05:03:00.392Z,1344.00
2018-06-19T05:04:00.399Z,1416.00
2018-06-19T05:05:00.388Z,1412.00
2018-06-19T05:06:00.406Z,1480.00
2018-06-19T05:07:00.382Z,1464.00
2018-06-19T05:08:00.426Z,1252.00
2018-06-19T05:09:00.409Z,1244.00
2018-06-19T05:10:00.395Z,1216.00
2018-06-19T05:11:00.403Z,996.00
2018-06-19T05:12:00.411Z,868.00
2018-06-19T05:13:00.428Z,772.00
2018-06-19T05:14:00.420Z,868.00
2018-06-19T05:15:00.429Z,792.00
2018-06-19T05:16:00.453Z,756.00
2018-06-19T05:17:00.495Z,1056.00
2018-06-19T05:18:00.408Z,1452.00
2018-06-19T05:19:00.438Z,1728.00
2018-06-19T05:20:00.483Z,1872.00
2018-06-19T05:21:00.451Z,1796.00
2018-06-19T05:22:00.472Z,1856.00
2018-06-19T05:23:00.449Z,1936.00
2018-06-19T05:24:00.443Z,1960.00
2018-06-19T05:25:00.470Z,2076.00
2018-06-19T05:26:00.487Z,1928.00
2018-06-19T05:27:00.457Z,1612.00
2018-06-19T05:28:00.497Z,1448.00
2018-06-19T05:29:00.458Z,1484.00
2018-06-19T05:30:00.471Z,1532.00
2018-06-19T05:31:00.480Z,1632.00
2018-06-19T05:32:00.451Z,1652.00
2018-06-19T05:33:00.473Z,1648.00
2018-06-19T05:34:00.486Z,1732.00
2018-06-19T05:35:00.501Z,1888.00
2018-06-19T05:36:00.530Z,2124.00
2018-06-19T05:37:00.459Z,1916.00
2018-06-19T05:38:00.460Z,1800.00
2018-06-19T05:39:00.508Z,1812.00
2018-06-19T05:40:00.490Z,1920.00
2018-06-19T05:41:00.491Z,1992.00
2018-06-19T05:42:00.502Z,1968.00
2018-06-19T05:43:00.481Z,1836.00
2018-06-19T05:44:00.518Z,2068.00
2018-06-19T05:45:00.492Z,2156.00
2018-06-19T05:46:00.518Z,2144.00
2018-06-19T05:47:00.501Z,2096.00
2018-06-19T05:48:00.514Z,2276.00
2018-06-19T05:49:00.522Z,2380.00
2018-06-19T05:50:00.521Z,2316.00
2018-06-19T05:51:00.602Z,2336.00
2018-06-19T05:52:00.537Z,2352.00
2018-06-19T05:53:00.517Z,2236.00
2018-06-19T05:54:00.525Z,1936.00
2018-06-19T05:55:00.521Z,2076.00
2018-06-19T05:56:00.563Z,2180.00
2018-06-19T05:57:00.527Z,2064.00
2018-06-19T05:58:00.548Z,2028.00
2018-06-19T05:59:00.560Z,2200.00
2018-06-19T06:00:01.258Z,2164.00
2018-06-19T06:01:00.540Z,1844.00
2018-06-19T06:02:00.696Z,1616.00
2018-06-19T06:03:01.253Z,1644.00
2018-06-19T06:04:00.594Z,1520.00
2018-06-19T06:05:00.668Z,1804.00
2018-06-19T06:06:00.562Z,2088.00
2018-06-19T06:07:00.566Z,2004.00
2018-06-19T06:08:00.565Z,1792.00
2018-06-19T06:09:00.574Z,2032.00
2018-06-19T06:10:00.574Z,1940.00
2018-06-19T06:11:00.558Z,2200.00
2018-06-19T06:12:00.556Z,2304.00
2018-06-19T06:13:00.564Z,2032.00
2018-06-19T06:14:00.592Z,1884.00
2018-06-19T06:15:00.557Z,2160.00
2018-06-19T06:16:00.572Z,2048.00
2018-06-19T06:17:00.578Z,2248.00
2018-06-19T06:18:00.561Z,2240.00
2018-06-19T06:19:00.565Z,2368.00
2018-06-19T06:20:00.607Z,2680.00
2018-06-19T06:21:00.607Z,2304.00
2018-06-19T06:22:00.641Z,1888.00
2018-06-19T06:23:00.612Z,2036.00
2018-06-19T06:24:00.666Z,2244.00
2018-06-19T06:25:00.588Z,2284.00
2018-06-19T06:26:00.592Z,2628.00
2018-06-19T06:27:00.569Z,2948.00
2018-06-19T06:28:02.408Z,3168.00
2018-06-19T06:29:00.627Z,2736.00
2018-06-19T06:30:00.595Z,2900.00
2018-06-19T06:31:00.678Z,3232.00
2018-06-19T06:32:00.609Z,3500.00
2018-06-19T06:33:00.603Z,3060.00
2018-06-19T06:34:00.601Z,2920.00
2018-06-19T06:35:00.604Z,3208.00
2018-06-19T06:36:00.644Z,3448.00
2018-06-19T06:37:00.639Z,3476.00
2018-06-19T06:38:00.639Z,4064.00
2018-06-19T06:39:00.702Z,4568.00
2018-06-19T06:40:00.636Z,5260.00
2018-06-19T06:41:00.658Z,5912.00
2018-06-19T06:42:00.627Z,5612.00
2018-06-19T06:43:00.750Z,5348.00
2018-06-19T06:44:00.681Z,5692.00
2018-06-19T06:45:00.687Z,5700.00
2018-06-19T06:46:00.653Z,6188.00
2018-06-19T06:47:00.661Z,6208.00
2018-06-19T06:48:00.690Z,6100.00
2018-06-19T06:49:00.668Z,6320.00
2018-06-19T06:50:02.361Z,6324.00
2018-06-19T06:51:00.642Z,6768.00
2018-06-19T06:52:00.689Z,7344.00
2018-06-19T06:53:00.680Z,7692.00
2018-06-19T06:54:00.696Z,9312.00
2018-06-19T06:55:00.798Z,9328.00
2018-06-19T06:56:00.703Z,7792.00
2018-06-19T06:57:00.707Z,5600.00
2018-06-19T06:58:00.821Z,5408.00
2018-06-19T06:59:00.672Z,5388.00
2018-06-19T07:00:00.674Z,5672.00
2018-06-19T07:01:00.731Z,5900.00
2018-06-19T07:02:00.715Z,6016.00
2018-06-19T07:03:00.705Z,5856.00
2018-06-19T07:04:00.709Z,6988.00
2018-06-19T07:05:00.693Z,6232.00
2018-06-19T07:06:00.708Z,5140.00
2018-06-19T07:07:00.711Z,6056.00
2018-06-19T07:08:02.071Z,5644.00
2018-06-19T07:09:00.749Z,5236.00
2018-06-19T07:10:00.739Z,5664.00
2018-06-19T07:11:00.717Z,6700.00
2018-06-19T07:12:00.766Z,6012.00
2018-06-19T07:13:00.734Z,7060.00
2018-06-19T07:14:00.727Z,7576.00
2018-06-19T07:15:00.743Z,7740.00
2018-06-19T07:16:00.804Z,9340.00
2018-06-19T07:17:00.728Z,9704.00
2018-06-19T07:18:00.806Z,9096.00
2018-06-19T07:19:00.888Z,8612.00
2018-06-19T07:20:00.967Z,7424.00
2018-06-19T07:21:00.746Z,8372.00
2018-06-19T07:22:01.292Z,8304.00
2018-06-19T07:23:00.775Z,8024.00
2018-06-19T07:24:00.764Z,6916.00
2018-06-19T07:25:00.761Z,7228.00
2018-06-19T07:26:00.819Z,7280.00
2018-06-19T07:27:00.778Z,6460.00
2018-06-19T07:28:00.828Z,6520.00
2018-06-19T07:29:02.390Z,6504.00
2018-06-19T07:30:02.372Z,6720.00
2018-06-19T07:31:00.793Z,6212.00
2018-06-19T07:32:01.399Z,5876.00
2018-06-19T07:33:00.869Z,6824.00
2018-06-19T07:34:00.990Z,6268.00
2018-06-19T07:35:00.826Z,5964.00
2018-06-19T07:36:00.794Z,6228.00
2018-06-19T07:37:02.430Z,6124.00
2018-06-19T07:38:01.044Z,5320.00
2018-06-19T07:39:00.814Z,6036.00
2018-06-19T07:40:01.021Z,6312.00
2018-06-19T07:41:01.007Z,5928.00
2018-06-19T07:42:00.840Z,5988.00
2018-06-19T07:43:00.869Z,5564.00
2018-06-19T07:44:00.838Z,6344.00
2018-06-19T07:45:00.818Z,6224.00
2018-06-19T07:46:08.523Z,7412.00
2018-06-19T07:48:24.479Z,6208.00
2018-06-19T22:01:12.239Z,0.00
2018-06-19T22:01:59.126Z,0.00
2018-06-19T22:02:59.103Z,0.00
2018-06-19T22:04:15.583Z,0.00
2018-06-19T22:04:59.056Z,0.00
2018-06-19T22:05:59.051Z,0.00
2018-06-19T22:06:59.090Z,0.00
2018-06-19T22:07:59.091Z,0.00
2018-06-19T22:08:59.098Z,0.00
2018-06-19T22:09:59.070Z,0.00
2018-06-19T22:10:59.104Z,0.00
2018-06-19T22:11:59.089Z,0.00
2018-06-19T22:12:59.167Z,0.00
2018-06-19T22:13:59.152Z,0.00
2018-06-19T22:14:59.078Z,0.00
2018-06-19T22:15:59.142Z,0.00
2018-06-19T22:16:59.144Z,0.00
2018-06-19T22:17:59.116Z,0.00
2018-06-19T22:18:59.101Z,0.00
2018-06-19T22:19:59.107Z,0.00
2018-06-19T22:20:59.104Z,0.00
2018-06-19T22:21:59.112Z,0.00
2018-06-19T22:22:59.103Z,0.00
2018-06-19T22:23:59.101Z,0.00
2018-06-19T22:24:59.110Z,0.00
2018-06-19T22:25:59.113Z,0.00
2018-06-19T22:26:59.119Z,0.00
2018-06-19T22:27:59.125Z,0.00
2018-06-19T22:28:59.123Z,0.00
2018-06-19T22:29:59.153Z,0.00
2018-06-19T22:30:59.125Z,0.00
2018-06-19T22:31:59.127Z,0.00
2018-06-19T22:32:59.153Z,0.00
2018-06-19T22:33:59.131Z,0.00
2018-06-19T22:34:59.137Z,0.00
2018-06-19T22:35:59.144Z,0.00
2018-06-19T22:36:59.168Z,0.00
2018-06-19T22:37:59.138Z,0.00
2018-06-19T22:38:59.153Z,0.00
2018-06-19T22:39:59.150Z,0.00
2018-06-19T22:40:59.188Z,0.00
2018-06-19T22:41:59.223Z,0.00
2018-06-19T22:42:59.174Z,0.00
2018-06-19T22:43:59.249Z,0.00
2018-06-19T22:44:59.180Z,0.00
2018-06-19T22:45:59.208Z,0.00
2018-06-19T22:46:59.189Z,0.00
2018-06-19T22:47:59.213Z,0.00
2018-06-19T22:48:59.194Z,0.00
2018-06-19T22:49:59.189Z,0.00
2018-06-19T22:50:59.190Z,0.00
2018-06-19T22:51:59.187Z,0.00
2018-06-19T22:52:59.198Z,0.00
2018-06-19T22:53:59.200Z,0.00
2018-06-19T22:54:59.234Z,0.00
2018-06-19T22:55:59.270Z,0.00
2018-06-19T22:56:59.212Z,0.00
2018-06-19T22:57:59.227Z,0.00
2018-06-19T22:58:59.204Z,0.00
2018-06-19T22:59:59.216Z,0.00
2018-06-19T23:00:59.339Z,0.00
2018-06-19T23:01:59.212Z,0.00
2018-06-19T23:02:59.234Z,0.00
2018-06-19T23:03:59.259Z,0.00
2018-06-19T23:04:59.234Z,0.00
2018-06-19T23:05:59.260Z,0.00
2018-06-19T23:06:59.278Z,0.00
2018-06-19T23:07:59.248Z,0.00
2018-06-19T23:08:59.244Z,0.00
2018-06-19T23:09:59.265Z,0.00
2018-06-19T23:10:59.303Z,0.00
2018-06-19T23:11:59.283Z,0.00
2018-06-19T23:12:59.251Z,0.00
2018-06-19T23:13:59.277Z,0.00
2018-06-19T23:14:59.295Z,0.00
2018-06-19T23:15:59.264Z,0.00
2018-06-19T23:16:59.263Z,0.00
2018-06-19T23:17:59.268Z,0.00
2018-06-19T23:18:59.303Z,0.00
2018-06-19T23:19:59.291Z,0.00
2018-06-19T23:20:59.296Z,0.00
2018-06-19T23:21:59.308Z,0.00
2018-06-19T23:22:59.366Z,0.00
2018-06-19T23:23:59.357Z,0.00
2018-06-19T23:24:59.316Z,0.00
2018-06-19T23:25:59.336Z,0.00
2018-06-19T23:26:59.319Z,0.00
2018-06-19T23:27:59.335Z,0.00
2018-06-19T23:28:59.328Z,0.00
2018-06-19T23:29:59.332Z,0.00
2018-06-19T23:30:59.347Z,0.00
2018-06-19T23:31:59.354Z,0.00
2018-06-19T23:32:59.382Z,0.00
2018-06-19T23:33:59.376Z,0.00
2018-06-19T23:34:59.374Z,0.00
2018-06-19T23:35:59.389Z,0.00
2018-06-19T23:36:59.383Z,0.00
2018-06-19T23:37:59.354Z,0.00
2018-06-19T23:38:59.390Z,0.00
2018-06-19T23:39:59.360Z,0.00
2018-06-19T23:40:59.378Z,0.00
2018-06-19T23:41:59.397Z,0.00
2018-06-19T23:42:59.416Z,0.00
2018-06-19T23:43:59.408Z,0.00
2018-06-19T23:44:59.404Z,0.00
2018-06-19T23:45:59.451Z,0.00
2018-06-19T23:46:59.403Z,0.00
2018-06-19T23:47:59.400Z,0.00
2018-06-19T23:48:59.374Z,0.00
2018-06-19T23:49:59.404Z,0.00
2018-06-19T23:50:59.438Z,0.00
2018-06-19T23:51:59.429Z,0.00
2018-06-19T23:52:59.395Z,0.00
2018-06-19T23:53:59.458Z,0.00
2018-06-19T23:54:59.429Z,0.00
2018-06-19T23:55:59.534Z,0.00
2018-06-19T23:56:59.391Z,0.00
2018-06-19T23:57:59.399Z,0.00
2018-06-19T23:58:59.437Z,0.00
2018-06-19T23:59:59.471Z,0.00
